Time;durP1;ratioP1;P1;durP2;ratioP2;P2;SDS_P1;SDS_P2;PMS_P1;PMS_P2;Temp;Humidity;BMP_temperature;BMP_pressure;BME280_temperature;BME280_humidity;BME280_pressure;Samples;Min_cycle;Max_cycle;Signal;HPM_P1;HPM_P2
2022/09/08 00:01:52;;;;;;;10.70;4.20;;;;;;;15.26;42.54;99145.47;1753779;81;21484;-40
2022/09/08 00:04:18;;;;;;;10.60;4.42;;;;;;;15.25;42.78;99150.88;1753766;82;21003;-39
2022/09/08 00:06:46;;;;;;;9.70;4.37;;;;;;;15.21;42.88;99146.30;1753672;82;21010;-42
2022/09/08 00:09:11;;;;;;;9.78;4.97;;;;;;;15.19;43.12;99140.28;1753562;82;20960;-46
2022/09/08 00:11:39;;;;;;;9.43;4.75;;;;;;;15.16;43.05;99137.86;1753801;82;21484;-41
2022/09/08 00:14:08;;;;;;;13.15;5.08;;;;;;;15.16;42.97;99133.39;1753702;82;20992;-42
2022/09/08 00:16:34;;;;;;;16.15;4.67;;;;;;;15.16;42.91;99133.88;1753740;81;20952;-40
2022/09/08 00:19:00;;;;;;;10.30;4.78;;;;;;;15.14;43.23;99126.54;1753694;82;20979;-42
2022/09/08 00:21:28;;;;;;;10.48;4.72;;;;;;;15.11;43.41;99128.09;1753778;81;21509;-41
2022/09/08 00:23:54;;;;;;;9.50;4.90;;;;;;;15.10;43.29;99132.55;1753788;82;20990;-40
2022/09/08 00:26:21;;;;;;;14.10;5.12;;;;;;;15.08;43.48;99138.91;1753712;82;20983;-41
2022/09/08 00:28:46;;;;;;;7.20;4.40;;;;;;;15.08;43.49;99135.80;1753869;82;20983;-42
2022/09/08 00:31:12;;;;;;;15.28;5.08;;;;;;;15.05;43.45;99131.22;1745083;81;21012;-44
2022/09/08 00:33:38;;;;;;;10.00;5.40;;;;;;;15.04;43.37;99132.16;1739663;82;20944;-44
2022/09/08 00:36:07;;;;;;;20.80;5.28;;;;;;;15.03;43.50;99121.23;1739798;82;21442;-43
2022/09/08 00:38:33;;;;;;;14.83;4.80;;;;;;;15.01;43.51;99117.37;1739631;82;21468;-41
2022/09/08 00:40:59;;;;;;;10.03;4.85;;;;;;;15.01;43.69;99112.53;1739706;82;20988;-42
2022/09/08 00:43:43;;;;;;;11.20;4.87;;;;;;;14.98;43.78;99109.16;1739695;82;20952;-45
2022/09/08 00:46:20;;;;;;;9.05;5.35;;;;;;;14.96;43.70;99106.28;1739620;82;21109;-45
2022/09/08 00:48:54;;;;;;;9.05;5.30;;;;;;;14.96;43.61;99104.47;1718970;82;21457;-40
2022/09/08 00:51:23;;;;;;;13.88;5.10;;;;;;;14.93;43.71;99102.05;1739678;82;20992;-43
2022/09/08 00:53:49;;;;;;;10.68;5.15;;;;;;;14.93;43.78;99103.86;1739753;82;20989;-42
2022/09/08 00:56:16;;;;;;;15.28;5.05;;;;;;;14.91;43.78;99103.97;1739962;82;20980;-43
2022/09/08 00:58:42;;;;;;;12.67;5.20;;;;;;;14.93;43.71;99105.18;1739880;82;21470;-45
2022/09/08 01:01:08;;;;;;;7.42;4.92;;;;;;;14.89;43.93;99100.59;1739664;82;20975;-41
2022/09/08 01:03:38;;;;;;;8.15;4.87;;;;;;;14.86;43.91;99100.85;1739685;82;21019;-41
2022/09/08 01:06:18;;;;;;;8.85;4.95;;;;;;;14.83;44.03;99101.08;1739713;82;21152;-40
2022/09/08 01:14:53;;;;;;;10.45;5.60;;;;;;;14.82;43.90;99106.48;1739664;81;21430;-44
2022/09/08 01:17:23;;;;;;;16.07;5.62;;;;;;;14.82;44.04;99106.48;1739689;82;21012;-43
2022/09/08 01:19:50;;;;;;;13.25;4.97;;;;;;;14.79;44.08;99100.95;1739862;82;21008;-39
2022/09/08 01:22:37;;;;;;;11.22;4.95;;;;;;;14.80;44.00;99101.30;1739992;82;20984;-43
2022/09/08 01:25:27;;;;;;;12.03;5.78;;;;;;;14.76;44.07;99098.04;1738322;82;20933;-39
2022/09/08 01:28:05;;;;;;;13.70;7.30;;;;;;;14.76;44.06;99086.62;1739662;81;21008;-41
2022/09/08 01:30:33;;;;;;;14.05;6.85;;;;;;;14.72;43.99;99092.63;1740537;81;20988;-43
2022/09/08 01:33:02;;;;;;;13.45;6.25;;;;;;;14.69;44.04;99090.20;1747843;82;20971;-43
2022/09/08 01:35:32;;;;;;;12.35;6.40;;;;;;;14.69;44.07;99095.98;1747903;81;20944;-41
2022/09/08 01:37:59;;;;;;;8.95;5.10;;;;;;;14.67;44.38;99104.03;1747853;82;20991;-43
2022/09/08 01:40:25;;;;;;;9.90;5.50;;;;;;;14.67;44.56;99104.52;1748072;82;21020;-42
2022/09/08 01:42:51;;;;;;;10.82;5.37;;;;;;;14.62;44.59;99099.55;1747850;82;21002;-41
2022/09/08 01:45:17;;;;;;;10.35;4.92;;;;;;;14.66;44.25;99101.04;1747837;82;20964;-44
2022/09/08 01:47:43;;;;;;;12.60;4.70;;;;;;;14.65;44.03;99106.44;1747869;82;21010;-44
2022/09/08 01:50:09;;;;;;;10.50;4.70;;;;;;;14.63;44.14;99107.04;1747875;82;20995;-43
2022/09/08 01:52:36;;;;;;;7.60;4.90;;;;;;;14.61;44.30;99102.31;1747853;82;21520;-40
2022/09/08 01:55:03;;;;;;;10.03;4.70;;;;;;;14.61;44.32;99097.02;1748117;82;21018;-44
2022/09/08 01:57:28;;;;;;;12.95;5.28;;;;;;;14.62;44.21;99105.34;1748055;82;21438;-46
2022/09/08 01:59:54;;;;;;;7.60;4.85;;;;;;;14.60;44.14;99105.45;1747938;81;20972;-40
2022/09/08 02:02:20;;;;;;;8.55;5.12;;;;;;;14.61;44.15;99093.05;1747890;82;20978;-39
2022/09/08 02:04:46;;;;;;;10.08;4.83;;;;;;;14.59;44.03;99091.38;1747819;82;21377;-45
2022/09/08 02:07:12;;;;;;;11.00;5.15;;;;;;;14.59;43.92;99083.44;1747854;82;21370;-43
2022/09/08 02:09:37;;;;;;;11.33;5.00;;;;;;;14.59;44.03;99079.48;1747866;82;21346;-41
2022/09/08 02:12:04;;;;;;;15.72;4.80;;;;;;;14.57;44.07;99081.39;1747974;81;21476;-42
2022/09/08 02:14:30;;;;;;;10.38;4.67;;;;;;;14.54;44.21;99072.33;1748203;82;20971;-42
2022/09/08 02:16:56;;;;;;;14.80;4.72;;;;;;;14.51;44.16;99065.93;1747877;82;20948;-41
2022/09/08 02:19:22;;;;;;;14.40;4.78;;;;;;;14.48;43.98;99062.21;1747877;82;20956;-43
2022/09/08 02:21:47;;;;;;;10.55;4.70;;;;;;;14.48;43.81;99071.47;1747862;81;20978;-42
2022/09/08 02:24:13;;;;;;;10.90;4.85;;;;;;;14.47;43.85;99072.91;1747828;82;21003;-41
2022/09/08 02:30:35;;;;;;;12.10;4.85;;;;;;;14.45;43.74;99067.72;1748233;81;20991;-39
2022/09/08 02:33:01;;;;;;;11.05;4.80;;;;;;;14.43;43.75;99069.64;1740571;81;21473;-43
2022/09/08 02:35:28;;;;;;;11.33;4.85;;;;;;;14.41;43.63;99063.63;1739860;82;20972;-45
2022/09/08 02:37:54;;;;;;;10.25;5.05;;;;;;;14.38;43.75;99062.04;1731758;82;20976;-43
2022/09/08 02:43:29;;;;;;;9.95;5.20;;;;;;;14.41;44.05;99057.02;1773351;79;22968;-40
2022/09/08 02:45:56;;;;;;;12.90;4.37;;;;;;;14.36;43.65;99059.16;1761813;80;21039;-40
2022/09/08 02:48:22;;;;;;;10.63;5.15;;;;;;;14.37;43.62;99056.86;1761823;81;21007;-44
2022/09/08 02:50:47;;;;;;;13.93;5.25;;;;;;;14.32;43.62;99061.67;1761878;81;21653;-44
2022/09/08 02:53:14;;;;;;;12.65;5.10;;;;;;;14.33;43.69;99056.73;1761855;81;20983;-44
2022/09/08 02:55:41;;;;;;;12.40;4.97;;;;;;;14.34;43.50;99055.30;1761837;81;20956;-43
2022/09/08 02:58:08;;;;;;;;;;;;;;;14.36;43.52;99055.19;1764479;81;21492;-41
2022/09/08 03:00:37;;;;;;;11.63;4.37;;;;;;;14.34;43.80;99053.98;1762040;80;20112;-46
2022/09/08 03:03:03;;;;;;;8.60;4.45;;;;;;;14.34;43.46;99051.82;1761487;81;21037;-41
2022/09/08 03:05:30;;;;;;;11.65;4.28;;;;;;;14.32;43.44;99045.80;1761891;81;21059;-45
2022/09/08 03:07:58;;;;;;;;;;;;;;;14.33;43.41;99050.12;1764493;81;20959;-41
2022/09/08 03:10:23;;;;;;;;;;;;;;;14.23;44.04;99041.20;1764519;80;20428;-40
2022/09/08 03:12:55;;;;;;;7.58;4.30;;;;;;;14.21;43.97;99036.02;1761873;81;20104;-42
2022/09/08 03:15:24;;;;;;;7.65;4.35;;;;;;;14.21;43.45;99034.21;1761822;80;21028;-41
2022/09/08 03:17:50;;;;;;;15.35;4.42;;;;;;;14.20;43.57;99036.48;1761777;81;20971;-44
2022/09/08 03:20:17;;;;;;;14.23;5.03;;;;;;;14.20;43.60;99036.48;1762090;80;21027;-41
2022/09/08 03:22:43;;;;;;;10.68;4.47;;;;;;;14.19;43.44;99027.36;1762036;81;20963;-46
2022/09/08 03:25:10;;;;;;;6.45;3.98;;;;;;;14.16;43.54;99033.70;1761800;80;20983;-44
2022/09/08 03:27:36;;;;;;;8.97;4.17;;;;;;;14.16;43.56;99036.84;1762048;81;21472;-39
2022/09/08 03:30:05;;;;;;;8.55;4.03;;;;;;;14.15;43.51;99029.39;1762024;81;21065;-47
2022/09/08 03:32:34;;;;;;;9.38;4.12;;;;;;;14.15;43.54;99028.52;1761787;81;21450;-42
2022/09/08 03:35:00;;;;;;;15.68;4.20;;;;;;;14.12;43.57;99026.97;1761925;80;20988;-45
2022/09/08 03:37:27;;;;;;;13.45;4.72;;;;;;;14.12;43.62;99029.61;1761814;81;20972;-48
2022/09/08 03:39:53;;;;;;;10.55;4.40;;;;;;;14.10;43.48;99026.23;1761954;81;21042;-39
2022/09/08 03:42:19;;;;;;;9.95;4.28;;;;;;;14.10;43.56;99023.59;1762072;81;20984;-43
2022/09/08 03:44:45;;;;;;;8.90;4.33;;;;;;;14.12;43.51;99034.06;1762053;81;21003;-43
2022/09/08 03:47:11;;;;;;;7.78;4.22;;;;;;;14.10;43.51;99028.88;1762092;81;21492;-43
2022/09/08 03:49:37;;;;;;;9.35;4.62;;;;;;;14.10;43.45;99030.20;1762051;81;21006;-42
2022/09/08 03:52:03;;;;;;;11.28;4.70;;;;;;;14.10;43.43;99028.02;1762264;80;20983;-42
2022/09/08 03:57:06;;;;;;;10.58;4.92;;;;;;;14.08;43.40;99026.84;1725594;81;20936;-39
2022/09/08 03:59:31;;;;;;;7.35;4.70;;;;;;;14.01;43.64;99030.40;1761511;81;20995;-40
2022/09/08 04:01:57;;;;;;;7.53;4.67;;;;;;;14.00;43.78;99030.51;1761502;81;21023;-47
2022/09/08 04:04:23;;;;;;;8.78;4.20;;;;;;;14.00;43.76;99038.44;1761526;81;20999;-44
2022/09/08 04:06:50;;;;;;;10.85;4.45;;;;;;;13.96;43.92;99029.89;1761587;81;21007;-44
2022/09/08 04:09:16;;;;;;;18.30;4.65;;;;;;;13.93;43.97;99037.20;1761759;81;20999;-41
2022/09/08 04:11:42;;;;;;;10.30;4.42;;;;;;;13.93;44.15;99034.07;1761564;80;20964;-45
2022/09/08 04:14:08;;;;;;;14.90;5.53;;;;;;;13.93;43.95;99030.11;1761446;81;21046;-42
2022/09/08 04:16:35;;;;;;;13.13;5.08;;;;;;;13.91;44.00;99027.22;1761494;81;21038;-43
2022/09/08 04:19:00;;;;;;;14.43;4.97;;;;;;;13.91;44.15;99023.25;1761521;81;21480;-47
2022/09/08 04:21:26;;;;;;;13.03;4.58;;;;;;;13.92;44.05;99035.05;1761466;81;20960;-42
2022/09/08 04:23:53;;;;;;;10.50;4.40;;;;;;;13.90;44.21;99027.70;1761634;81;20991;-47
2022/09/08 04:26:18;;;;;;;8.43;4.83;;;;;;;13.91;44.18;99028.55;1761527;81;21030;-42
2022/09/08 04:28:44;;;;;;;11.45;4.55;;;;;;;13.88;44.31;99025.66;1761480;81;20996;-41
2022/09/08 04:31:13;;;;;;;19.85;4.62;;;;;;;13.83;44.45;99023.83;1761541;81;20979;-41
2022/09/08 04:33:40;;;;;;;15.05;4.45;;;;;;;13.82;44.27;99026.95;1761552;81;21014;-44
2022/09/08 04:36:16;;;;;;;12.28;4.50;;;;;;;13.82;44.38;99029.59;1761619;81;20981;-41
2022/09/08 04:38:42;;;;;;;9.78;4.65;;;;;;;13.81;44.57;99030.54;1761541;81;21349;-41
2022/09/08 04:41:13;;;;;;;13.03;5.05;;;;;;;13.73;45.04;99032.87;1761414;81;21531;-42
2022/09/08 04:43:40;;;;;;;9.98;4.40;;;;;;;13.76;44.71;99035.80;1743530;82;21474;-42
2022/09/08 04:46:13;;;;;;;8.67;4.57;;;;;;;13.78;44.71;99039.17;1753953;82;21504;-48
2022/09/08 04:48:41;;;;;;;11.10;4.60;;;;;;;13.77;44.72;99036.14;1753747;81;21407;-41
2022/09/08 04:51:09;;;;;;;10.88;4.97;;;;;;;13.77;44.80;99042.75;1753733;80;21022;-42
2022/09/08 04:53:36;;;;;;;10.55;4.55;;;;;;;13.76;45.00;99036.63;1753317;81;21409;-46
2022/09/08 04:56:04;;;;;;;22.67;6.67;;;;;;;13.77;44.83;99040.11;1753832;82;20979;-46
2022/09/08 04:58:32;;;;;;;12.90;5.22;;;;;;;13.76;44.95;99044.56;1753575;81;21015;-41
2022/09/08 05:01:11;;;;;;;;;;;;;;;13.73;45.30;99039.48;1756237;82;20979;-43
2022/09/08 05:03:38;;;;;;;11.25;4.80;;;;;;;13.69;46.37;99038.03;1753598;82;20139;-40
2022/09/08 05:06:08;;;;;;;14.65;4.95;;;;;;;13.71;45.34;99036.12;1753731;82;21449;-41
2022/09/08 05:08:34;;;;;;;16.50;5.55;;;;;;;13.73;45.31;99035.52;1753506;82;20972;-45
2022/09/08 05:11:01;;;;;;;13.43;4.70;;;;;;;13.73;45.37;99034.20;1753631;82;21359;-40
2022/09/08 05:13:28;;;;;;;16.82;5.30;;;;;;;13.71;46.02;99016.78;1753738;82;20979;-44
2022/09/08 05:16:04;;;;;;;11.90;4.72;;;;;;;13.70;45.44;99022.55;1753856;81;21022;-41
2022/09/08 05:18:30;;;;;;;15.88;5.25;;;;;;;13.71;45.59;99021.58;1753542;80;21445;-42
2022/09/08 05:20:56;;;;;;;10.93;4.92;;;;;;;13.72;45.87;99031.21;1753581;82;21031;-43
2022/09/08 05:23:22;;;;;;;11.50;4.55;;;;;;;13.74;45.68;99045.16;1753681;82;20974;-40
2022/09/08 05:26:01;;;;;;;15.15;5.20;;;;;;;13.76;45.70;99045.05;1753655;82;20990;-43
2022/09/08 05:28:30;;;;;;;15.35;4.75;;;;;;;13.76;45.78;99033.16;1753366;82;20991;-38
2022/09/08 05:30:57;;;;;;;11.63;5.20;;;;;;;13.78;45.80;99029.43;1753680;81;21362;-38
2022/09/08 05:33:23;;;;;;;15.28;5.47;;;;;;;13.80;45.94;99027.52;1753785;81;20964;-46
2022/09/08 05:35:50;;;;;;;14.23;5.72;;;;;;;13.81;46.10;99019.97;1753856;81;20975;-43
2022/09/08 05:38:16;;;;;;;11.20;5.58;;;;;;;13.83;46.14;99024.66;1753917;82;21030;-43
2022/09/08 05:40:42;;;;;;;13.32;4.92;;;;;;;13.81;46.76;99020.45;1753634;82;21463;-44
2022/09/08 05:43:08;;;;;;;9.90;4.92;;;;;;;13.88;45.99;99014.22;1745740;81;21008;-43
2022/09/08 05:45:34;;;;;;;15.48;4.58;;;;;;;13.88;46.03;99023.47;1739526;82;20984;-39
2022/09/08 05:48:00;;;;;;;11.95;5.08;;;;;;;13.94;45.92;99025.20;1739625;82;21509;-45
2022/09/08 05:50:26;;;;;;;13.32;5.33;;;;;;;13.99;46.04;99031.00;1739642;82;20964;-38
2022/09/08 05:52:52;;;;;;;17.75;5.97;;;;;;;14.00;46.32;99029.19;1739589;81;20992;-42
2022/09/08 05:55:18;;;;;;;14.78;4.78;;;;;;;14.03;46.10;99034.75;1739605;82;21548;-45
2022/09/08 05:57:44;;;;;;;13.05;5.05;;;;;;;14.08;45.89;99036.09;1739608;82;20988;-40
2022/09/08 06:00:11;;;;;;;14.20;4.95;;;;;;;14.12;46.06;99038.86;1739500;82;21473;-45
2022/09/08 06:02:37;;;;;;;9.23;5.08;;;;;;;14.15;45.86;99025.42;1739947;82;20988;-47
2022/09/08 06:05:04;;;;;;;12.13;4.55;;;;;;;14.21;45.83;99037.34;1739614;82;20992;-41
2022/09/08 06:07:31;;;;;;;18.90;5.22;;;;;;;14.25;45.76;99025.57;1739615;82;20968;-45
2022/09/08 06:09:57;;;;;;;;;;;;;;;14.32;45.70;99032.58;1742356;82;21028;-40
2022/09/08 06:12:23;;;;;;;32.08;5.35;;;;;;;14.33;46.42;99034.25;1739577;82;20111;-46
2022/09/08 06:14:49;;;;;;;200.57;15.75;;;;;;;14.37;45.71;99037.02;1739517;81;21023;-48
2022/09/08 06:17:15;;;;;;;17.75;5.17;;;;;;;14.40;45.79;99042.92;1739538;82;20968;-43
2022/09/08 06:19:41;;;;;;;13.40;4.53;;;;;;;14.47;45.52;99033.22;1739553;82;20992;-39
2022/09/08 06:22:06;;;;;;;16.10;4.90;;;;;;;14.50;45.63;99029.86;1739520;82;21023;-45
2022/09/08 06:24:32;;;;;;;11.45;5.08;;;;;;;14.55;45.91;99026.39;1739555;82;20968;-41
2022/09/08 06:27:13;;;;;;;11.68;5.10;;;;;;;14.62;45.70;99029.92;1739593;82;20992;-41
2022/09/08 06:29:59;;;;;;;10.60;4.28;;;;;;;14.67;45.88;99030.41;1739327;82;21039;-42
2022/09/08 06:32:45;;;;;;;13.07;4.23;;;;;;;14.70;45.74;99028.87;1739743;82;20972;-41
2022/09/08 06:35:20;;;;;;;11.87;5.10;;;;;;;14.74;45.80;99035.61;1739689;82;20964;-41
2022/09/08 06:37:56;;;;;;;17.35;5.22;;;;;;;14.74;45.70;99039.09;1739232;81;21485;-39
2022/09/08 06:40:33;;;;;;;14.35;5.58;;;;;;;14.76;45.71;99050.39;1739522;82;21035;-45
2022/09/08 06:43:22;;;;;;;16.02;5.30;;;;;;;14.81;46.02;99054.48;1742535;81;21051;-42
2022/09/08 06:45:56;;;;;;;14.00;5.70;;;;;;;14.86;45.75;99054.52;1747690;82;20991;-45
2022/09/08 06:48:31;;;;;;;12.98;4.70;;;;;;;14.90;45.98;99045.86;1718158;82;21038;-43
2022/09/08 06:51:05;;;;;;;11.78;5.17;;;;;;;14.95;45.80;99063.08;1747759;81;20987;-40
2022/09/08 06:53:45;;;;;;;17.60;4.92;;;;;;;15.01;45.80;99061.77;1746425;82;20987;-45
2022/09/08 06:56:25;;;;;;;13.30;5.28;;;;;;;15.06;45.69;99055.63;1718243;82;21015;-40
2022/09/08 06:58:57;;;;;;;12.47;5.33;;;;;;;15.11;45.87;99059.23;1743793;82;21484;-42
2022/09/08 07:01:41;;;;;;;31.07;6.28;;;;;;;15.16;45.73;99063.69;1746624;82;20991;-47
2022/09/08 07:04:19;;;;;;;15.85;5.80;;;;;;;15.23;45.83;99070.20;1747749;82;20964;-45
2022/09/08 07:07:01;;;;;;;21.25;5.58;;;;;;;15.31;45.90;99077.54;1747294;82;21464;-42
2022/09/08 07:09:35;;;;;;;12.05;5.20;;;;;;;15.38;45.89;99076.59;1747705;82;20983;-41
2022/09/08 07:12:19;;;;;;;14.65;5.00;;;;;;;15.45;45.82;99069.35;1747557;81;20991;-45
2022/09/08 07:15:09;;;;;;;13.05;5.30;;;;;;;15.50;45.90;99057.91;1720101;82;20986;-40
2022/09/08 07:17:41;;;;;;;12.25;5.28;;;;;;;15.58;45.71;99059.11;1747667;82;20994;-43
2022/09/08 07:20:10;;;;;;;17.57;5.35;;;;;;;15.65;45.92;99049.70;1741516;82;20956;-41
2022/09/08 07:22:55;;;;;;;18.67;4.60;;;;;;;15.72;45.93;99050.41;1747260;82;20987;-39
2022/09/08 07:25:55;;;;;;;16.05;4.95;;;;;;;15.78;45.76;99050.42;1747059;81;20984;-45
2022/09/08 07:28:25;;;;;;;13.70;4.92;;;;;;;15.87;45.52;99048.84;1747701;82;21108;-48
2022/09/08 07:30:56;;;;;;;32.98;6.87;;;;;;;15.97;45.54;99041.83;1748034;82;20991;-40
2022/09/08 07:33:34;;;;;;;13.68;4.83;;;;;;;16.05;45.52;99039.38;1747858;82;21445;-42
2022/09/08 07:36:27;;;;;;;13.45;4.87;;;;;;;16.13;45.38;99036.09;1747772;81;21591;-42
2022/09/08 07:38:56;;;;;;;9.58;4.53;;;;;;;16.23;45.39;99039.67;1743825;81;20964;-44
2022/09/08 07:41:28;;;;;;;11.80;4.78;;;;;;;16.34;45.75;99038.79;1726232;82;20999;-40
2022/09/08 07:43:59;;;;;;;12.35;5.72;;;;;;;16.42;45.72;99036.32;1721269;82;21003;-42
2022/09/08 07:47:14;;;;;;;14.47;5.70;;;;;;;16.53;45.74;99033.27;1708442;83;20992;-40
2022/09/08 07:49:54;;;;;;;12.00;5.50;;;;;;;16.64;45.64;99019.92;1718484;83;21039;-41
2022/09/08 07:52:50;;;;;;;12.78;5.20;;;;;;;16.78;45.51;99019.59;1718412;83;20996;-42
2022/09/08 07:55:33;;;;;;;24.12;5.90;;;;;;;16.89;46.13;99018.20;1718555;83;21619;-40
2022/09/08 07:58:17;;;;;;;10.50;5.45;;;;;;;17.04;45.45;99013.88;1718682;82;21038;-43
2022/09/08 08:00:51;;;;;;;14.78;5.70;;;;;;;17.15;45.28;99012.95;1718441;82;21631;-41
2022/09/08 08:03:28;;;;;;;17.70;5.28;;;;;;;17.28;45.14;99021.52;1718373;83;21007;-44
2022/09/08 08:06:08;;;;;;;15.38;5.67;;;;;;;17.40;45.02;99020.95;1717693;83;21371;-44
2022/09/08 08:09:14;;;;;;;16.52;5.22;;;;;;;17.53;45.13;99018.87;1735894;81;20964;-40
2022/09/08 08:12:10;;;;;;;13.43;5.22;;;;;;;17.63;45.11;99021.08;1734136;82;21575;-44
2022/09/08 08:15:08;;;;;;;15.20;5.70;;;;;;;17.74;45.08;99024.61;1748017;82;20984;-45
2022/09/08 08:18:04;;;;;;;13.58;5.62;;;;;;;17.81;45.02;99016.44;1748039;81;21460;-45
2022/09/08 08:21:03;;;;;;;16.85;5.67;;;;;;;17.91;45.02;99006.66;1748086;81;20988;-43
2022/09/08 08:23:40;;;;;;;14.93;5.70;;;;;;;18.01;44.97;99012.84;1695802;84;21066;-43
2022/09/08 08:26:26;;;;;;;11.10;5.03;;;;;;;18.12;44.94;99007.02;1695934;84;21042;-40
2022/09/08 08:29:13;;;;;;;13.90;4.60;;;;;;;18.26;44.94;99011.09;1684362;83;21018;-45
2022/09/08 08:31:47;;;;;;;13.23;4.97;;;;;;;18.38;44.60;99014.79;1690098;83;20978;-43
2022/09/08 08:34:36;;;;;;;11.00;5.37;;;;;;;18.49;44.63;99016.96;1690229;85;20994;-41
2022/09/08 08:37:06;;;;;;;13.40;4.92;;;;;;;18.56;44.30;99029.55;1690460;85;20996;-42
2022/09/08 08:39:35;;;;;;;15.78;4.80;;;;;;;18.68;44.31;99028.06;1690191;84;21598;-40
2022/09/08 08:42:32;;;;;;;19.05;5.08;;;;;;;18.77;44.42;99025.40;1691697;83;21507;-50
2022/09/08 08:45:35;;;;;;;8.20;4.60;;;;;;;18.89;44.46;99021.26;1678828;82;21051;-42
2022/09/08 08:48:27;;;;;;;20.10;5.85;;;;;;;19.03;44.02;99021.27;1678742;85;21524;-40
2022/09/08 08:51:23;;;;;;;14.07;4.62;;;;;;;19.21;43.72;99029.34;1678861;85;21038;-44
2022/09/08 08:54:30;;;;;;;12.45;4.80;;;;;;;19.37;43.61;99018.41;1679153;85;21027;-45
2022/09/08 08:57:14;;;;;;;;;;;;;;;19.52;42.76;99017.92;1681239;84;21085;-42
2022/09/08 09:00:06;;;;;;;22.22;4.72;;;;;;;19.63;42.75;99016.38;1701357;83;20439;-41
2022/09/08 09:03:04;;;;;;;9.55;4.80;;;;;;;19.74;42.62;99016.70;1717724;83;20975;-40
2022/09/08 09:05:44;;;;;;;12.85;5.17;;;;;;;19.87;42.61;99021.16;1718053;83;21556;-38
2022/09/08 09:08:36;;;;;;;12.78;4.62;;;;;;;20.02;42.01;99020.64;1717604;83;21026;-42
2022/09/08 09:11:46;;;;;;;12.30;4.87;;;;;;;20.22;42.52;99018.16;1718100;83;21003;-42
2022/09/08 09:14:54;;;;;;;23.22;6.28;;;;;;;20.44;42.11;99015.50;1717861;83;20991;-41
2022/09/08 09:17:43;;;;;;;18.45;5.10;;;;;;;20.89;41.84;99017.69;1718024;83;21003;-47
2022/09/08 09:20:27;;;;;;;27.62;5.10;;;;;;;21.50;39.39;99021.18;1717668;83;20979;-43
2022/09/08 09:23:22;;;;;;;36.65;7.10;;;;;;;21.97;40.66;99016.63;1716943;83;21570;-45
2022/09/08 09:26:02;;;;;;;121.50;13.22;;;;;;;22.33;39.65;99007.50;1717727;83;21042;-44
2022/09/08 09:28:57;;;;;;;88.87;11.18;;;;;;;22.78;39.96;99004.27;1689471;85;21530;-43
2022/09/08 09:31:46;;;;;;;56.40;8.43;;;;;;;23.13;39.15;99001.38;1688376;85;21115;-39
2022/09/08 09:34:44;;;;;;;21.25;4.78;;;;;;;23.12;38.31;98999.69;1696000;84;21127;-41
2022/09/08 09:37:37;;;;;;;21.87;4.80;;;;;;;23.03;37.41;99002.03;1663305;85;21126;-43
2022/09/08 09:40:37;;;;;;;7.35;4.28;;;;;;;23.37;36.70;99004.46;1675744;85;21031;-48
2022/09/08 09:43:24;;;;;;;8.18;4.15;;;;;;;23.79;36.75;98997.04;1679549;84;21048;-40
2022/09/08 09:46:10;;;;;;;19.25;4.95;;;;;;;24.36;36.25;99002.05;1708725;84;20983;-40
2022/09/08 09:49:14;;;;;;;25.85;5.10;;;;;;;24.73;32.91;99001.73;1707335;84;21063;-43
2022/09/08 09:52:22;;;;;;;14.78;4.28;;;;;;;25.19;34.60;98996.17;1707596;84;21043;-44
2022/09/08 09:55:02;;;;;;;20.05;4.80;;;;;;;25.56;33.83;98990.86;1708552;84;21563;-39
2022/09/08 09:57:50;;;;;;;13.98;4.10;;;;;;;26.14;33.37;98985.51;1708566;84;20987;-41
2022/09/08 10:00:23;;;;;;;17.67;3.95;;;;;;;26.38;32.11;98987.81;1691032;84;20992;-37
2022/09/08 10:03:24;;;;;;;93.72;12.00;;;;;;;26.71;31.82;98988.62;1680303;85;21575;-42
2022/09/08 10:06:27;;;;;;;188.18;18.62;;;;;;;26.99;31.44;98975.61;1709454;83;21003;-44
2022/09/08 10:09:31;;;;;;;18.90;4.83;;;;;;;27.11;30.67;98975.38;1734173;81;20978;-40
2022/09/08 10:12:23;;;;;;;;;;;;;;;26.73;30.53;98974.41;1763200;81;20983;-43
2022/09/08 10:15:29;;;;;;;14.95;4.37;;;;;;;26.26;28.84;98977.75;1760464;81;20394;-40
2022/09/08 10:18:37;;;;;;;18.23;4.22;;;;;;;26.63;30.73;98968.52;1760859;81;21053;-40
2022/09/08 10:21:35;;;;;;;14.03;3.80;;;;;;;26.93;30.31;98961.58;1760243;81;20955;-44
2022/09/08 10:24:29;;;;;;;505.33;52.08;;;;;;;27.31;29.91;98966.58;1760338;81;21085;-46
2022/09/08 10:27:52;;;;;;;57.45;8.43;;;;;;;27.58;29.39;98964.81;1760815;81;20956;-39
2022/09/08 10:30:55;;;;;;;13.90;4.08;;;;;;;27.48;29.76;98969.22;1759272;81;20966;-43
2022/09/08 10:33:59;;;;;;;10.03;3.75;;;;;;;27.15;29.00;98972.58;1698195;83;21019;-40
2022/09/08 10:36:48;;;;;;;7.47;4.08;;;;;;;26.97;29.40;98972.28;1621925;88;21012;-40
2022/09/08 10:39:28;;;;;;;14.93;4.35;;;;;;;27.01;29.10;98965.44;1629242;88;20991;-46
2022/09/08 10:42:34;;;;;;;13.08;3.33;;;;;;;27.60;29.41;98968.14;1629252;88;21019;-45
2022/09/08 10:45:33;;;;;;;;;;;;;;;28.18;28.33;98960.05;1632580;88;21086;-43
2022/09/08 10:48:35;;;;;;;5.60;3.22;;;;;;;28.94;26.09;98954.17;1630611;88;20144;-46
2022/09/08 10:51:39;;;;;;;25.08;4.50;;;;;;;29.44;26.53;98931.95;1629067;88;21034;-43
2022/09/08 10:54:19;;;;;;;14.10;3.65;;;;;;;29.44;26.53;98931.95;1629499;88;21082;-46
2022/09/08 10:56:47;;;;;;;7.90;3.60;;;;;;;28.89;26.56;98951.30;1629235;88;21030;-43
2022/09/08 10:59:58;;;;;;;7.95;3.95;;;;;;;28.32;26.81;98956.30;1629477;88;21031;-45
2022/09/08 11:02:46;;;;;;;8.15;3.60;;;;;;;27.93;27.35;98953.38;1629400;88;21480;-47
2022/09/08 11:05:36;;;;;;;12.03;3.77;;;;;;;28.11;27.58;98943.84;1629854;86;21080;-44
2022/09/08 11:08:37;;;;;;;12.15;3.40;;;;;;;28.50;27.45;98942.16;1668944;85;20980;-43
2022/09/08 11:11:23;;;;;;;14.95;3.95;;;;;;;29.09;26.91;98939.05;1731292;81;20987;-42
2022/09/08 11:14:21;;;;;;;17.32;4.00;;;;;;;29.72;26.67;98946.47;1760436;81;21053;-43
2022/09/08 11:17:25;;;;;;;17.45;3.83;;;;;;;30.23;25.13;98947.41;1760877;81;20976;-46
2022/09/08 11:20:10;;;;;;;32.05;3.83;;;;;;;30.88;25.74;98945.67;1761063;81;20991;-48
2022/09/08 11:22:56;;;;;;;18.07;4.20;;;;;;;31.36;25.05;98945.45;1760885;81;20987;-46
2022/09/08 11:25:33;;;;;;;;;;;;;;;31.45;24.25;98945.43;1761126;80;21047;-43
2022/09/08 11:28:41;;;;;;;14.78;3.83;;;;;;;31.22;22.04;98939.38;1730160;83;20448;-47
2022/09/08 11:31:28;;;;;;;18.50;5.33;;;;;;;32.07;23.03;98928.93;1730877;82;20999;-43
2022/09/08 11:34:05;;;;;;;11.85;4.40;;;;;;;32.61;22.87;98936.20;1711603;81;21054;-42
2022/09/08 11:37:19;;;;;;;10.85;3.17;;;;;;;32.83;22.55;98943.22;1757466;81;21026;-46
2022/09/08 11:40:32;;;;;;;9.18;2.80;;;;;;;32.99;21.86;98937.58;1758301;81;20999;-41
2022/09/08 11:43:06;;;;;;;12.90;3.45;;;;;;;33.35;21.84;98931.55;1730294;82;21035;-48
2022/09/08 11:46:00;;;;;;;12.58;3.52;;;;;;;33.49;21.78;98935.61;1730234;82;21024;-49
2022/09/08 11:49:12;;;;;;;16.75;3.72;;;;;;;33.85;22.25;98926.76;1730713;82;20979;-50
2022/09/08 11:51:55;;;;;;;8.85;3.20;;;;;;;34.57;21.27;98927.95;1730097;82;22400;-42
2022/09/08 11:54:43;;;;;;;12.85;3.10;;;;;;;35.17;20.49;98927.69;1730505;81;21050;-40
2022/09/08 11:57:56;;;;;;;7.17;3.37;;;;;;;35.32;19.48;98929.80;1730595;83;20983;-46
2022/09/08 12:00:54;;;;;;;8.70;2.83;;;;;;;35.21;19.15;98922.56;1731077;81;21550;-48
2022/09/08 12:03:51;;;;;;;8.40;3.37;;;;;;;35.41;19.20;98924.16;1717188;82;20995;-48
2022/09/08 12:06:51;;;;;;;9.78;3.17;;;;;;;35.77;18.90;98918.23;1730718;82;21026;-47
2022/09/08 12:09:40;;;;;;;6.40;3.40;;;;;;;36.28;18.48;98924.20;1730818;82;21634;-47
2022/09/08 12:12:37;;;;;;;11.73;3.60;;;;;;;36.68;18.11;98915.44;1730700;82;21921;-42
2022/09/08 12:15:46;;;;;;;8.25;3.75;;;;;;;36.83;17.13;98915.25;1730793;82;20983;-43
2022/09/08 12:18:23;;;;;;;6.35;3.33;;;;;;;37.08;17.57;98915.36;1730182;82;21011;-47
2022/09/08 12:21:16;;;;;;;4.80;3.12;;;;;;;37.72;16.95;98913.38;1726094;83;21112;-39
2022/09/08 12:23:56;;;;;;;8.93;2.92;;;;;;;37.81;16.56;98909.00;1730447;82;21856;-36
2022/09/08 12:27:00;;;;;;;5.42;3.47;;;;;;;38.09;16.68;98908.20;1730106;82;21191;-40
2022/09/08 12:30:08;;;;;;;6.75;2.92;;;;;;;38.13;16.51;98900.23;1730282;82;20987;-39
2022/09/08 12:33:20;;;;;;;8.85;3.20;;;;;;;38.19;15.56;98894.48;1730133;82;21094;-40
2022/09/08 12:35:55;;;;;;;11.33;3.58;;;;;;;38.25;15.61;98894.48;1730870;83;21023;-36